Time;durP1;ratioP1;P1;durP2;ratioP2;P2;SDS_P1;SDS_P2;PMS_P1;PMS_P2;Temp;Humidity;BMP_temperature;BMP_pressure;BME280_temperature;BME280_humidity;BME280_pressure;Samples;Min_cycle;Max_cycle;Signal;HPM_P1;HPM_P2
2022/12/20 00:01:56;;;;;;;33.10;15.98;;;;;;;0.75;82.29;99776.80;1712087;84;20994;-40
2022/12/20 00:04:21;;;;;;;37.17;18.02;;;;;;;0.78;82.06;99786.27;1711963;84;21527;-41
2022/12/20 00:06:47;;;;;;;34.63;17.42;;;;;;;0.73;82.78;99783.73;1711957;84;21023;-39
2022/12/20 00:09:13;;;;;;;39.15;17.48;;;;;;;0.78;82.26;99787.55;1711948;84;21027;-34
2022/12/20 00:11:40;;;;;;;34.00;16.57;;;;;;;0.78;83.24;99785.41;1711882;84;20995;-41
2022/12/20 00:14:08;;;;;;;36.63;18.52;;;;;;;0.78;83.24;99785.41;1712071;84;20987;-36
2022/12/20 00:16:35;;;;;;;;;;;;;;;0.73;83.23;99791.49;1714533;84;21516;-40
2022/12/20 00:19:05;;;;;;;35.95;16.17;;;;;;;0.72;83.73;99783.73;1711991;84;20437;-38
2022/12/20 00:21:33;;;;;;;35.50;16.50;;;;;;;0.71;83.88;99792.36;1711970;84;20996;-38
2022/12/20 00:23:59;;;;;;;30.25;15.63;;;;;;;0.70;83.40;99785.03;1711917;84;20999;-39
2022/12/20 00:26:28;;;;;;;38.70;17.90;;;;;;;0.75;82.67;99783.72;1711887;84;21062;-40
2022/12/20 00:28:55;;;;;;;35.33;17.37;;;;;;;0.70;82.97;99780.30;1711923;82;20971;-40
2022/12/20 00:31:22;;;;;;;37.13;17.57;;;;;;;0.62;83.84;99775.19;1712172;82;20992;-38
2022/12/20 00:33:52;;;;;;;31.90;17.30;;;;;;;0.70;83.30;99781.15;1712045;84;21492;-41
2022/12/20 00:36:18;;;;;;;33.15;16.87;;;;;;;0.73;83.00;99766.90;1711828;84;21466;-35
2022/12/20 00:38:46;;;;;;;35.85;17.85;;;;;;;0.72;82.90;99753.52;1711981;84;20992;-38
2022/12/20 00:41:19;;;;;;;40.03;17.32;;;;;;;0.73;83.90;99748.78;1712060;84;20968;-37
2022/12/20 00:43:45;;;;;;;34.23;17.23;;;;;;;0.72;84.02;99750.93;1712034;84;21054;-39
2022/12/20 00:46:13;;;;;;;38.40;17.53;;;;;;;0.74;84.05;99746.59;1712170;84;21516;-38
2022/12/20 00:48:39;;;;;;;41.40;17.67;;;;;;;0.76;84.42;99744.88;1722808;83;21082;-34
2022/12/20 00:51:12;;;;;;;34.98;18.02;;;;;;;0.74;84.46;99747.89;1727547;83;21002;-39
2022/12/20 00:53:38;;;;;;;38.85;18.92;;;;;;;0.83;84.26;99733.17;1727572;83;21501;-38
2022/12/20 00:56:06;;;;;;;34.03;16.70;;;;;;;0.79;85.30;99737.95;1728089;83;21006;-42
2022/12/20 00:58:33;;;;;;;;;;;;;;;0.76;85.43;99739.70;1730169;83;21646;-43
2022/12/20 01:00:59;;;;;;;;;;;;;;;0.78;85.41;99734.93;1730183;83;20171;-37
2022/12/20 01:03:26;;;;;;;37.08;17.62;;;;;;;0.86;85.05;99734.00;1727590;83;20184;-38
2022/12/20 01:05:59;;;;;;;40.45;18.15;;;;;;;0.87;84.92;99725.78;1727648;83;20998;-38
2022/12/20 01:08:28;;;;;;;39.03;18.23;;;;;;;0.89;84.81;99724.92;1726959;83;20967;-38
2022/12/20 01:11:00;;;;;;;33.20;17.07;;;;;;;0.90;85.69;99733.09;1727548;83;20995;-38
2022/12/20 01:13:27;;;;;;;33.13;17.42;;;;;;;0.88;85.93;99731.41;1726467;83;20999;-36
2022/12/20 01:15:54;;;;;;;42.80;19.53;;;;;;;0.89;85.56;99726.63;1727754;83;21034;-37
2022/12/20 01:18:19;;;;;;;36.95;18.02;;;;;;;0.90;85.67;99721.89;1727486;83;22186;-37
2022/12/20 01:20:45;;;;;;;34.88;17.50;;;;;;;0.90;85.82;99724.47;1727548;83;21007;-38
2022/12/20 01:23:11;;;;;;;44.40;18.07;;;;;;;0.92;85.28;99716.25;1727532;83;20998;-38
2022/12/20 01:25:37;;;;;;;33.40;16.95;;;;;;;0.94;85.28;99711.91;1727127;83;21203;-36
2022/12/20 01:28:03;;;;;;;36.63;18.02;;;;;;;0.94;85.63;99693.78;1727041;83;21030;-37
2022/12/20 01:30:28;;;;;;;34.75;18.32;;;;;;;0.93;85.85;99686.47;1727530;83;21491;-40
2022/12/20 01:32:54;;;;;;;36.08;17.40;;;;;;;0.95;85.54;99692.92;1727484;83;21034;-39
2022/12/20 01:35:20;;;;;;;35.65;16.93;;;;;;;0.93;85.76;99690.34;1727518;83;21357;-36
2022/12/20 01:37:46;;;;;;;34.27;17.70;;;;;;;0.94;85.55;99682.98;1727597;83;20998;-40
2022/12/20 01:40:12;;;;;;;36.50;17.75;;;;;;;0.94;85.46;99680.84;1727522;83;20976;-39
2022/12/20 01:42:38;;;;;;;35.03;17.52;;;;;;;0.91;85.64;99680.45;1727517;83;21147;-36
2022/12/20 01:45:09;;;;;;;33.45;17.32;;;;;;;0.87;86.03;99694.72;1727505;83;20998;-38
2022/12/20 01:47:37;;;;;;;36.63;17.45;;;;;;;0.94;85.66;99689.45;1725013;82;21074;-36
2022/12/20 01:50:04;;;;;;;;;;;;;;;0.97;85.70;99692.92;1714497;83;20991;-42
2022/12/20 01:52:42;;;;;;;32.48;16.20;;;;;;;1.00;85.34;99689.86;1712217;84;20449;-36
2022/12/20 01:55:13;;;;;;;34.15;16.67;;;;;;;0.91;85.71;99697.28;1711924;84;20972;-38
2022/12/20 01:57:47;;;;;;;30.97;16.23;;;;;;;1.01;85.40;99685.53;1711456;84;21030;-37
2022/12/20 02:00:15;;;;;;;30.72;16.12;;;;;;;1.01;85.67;99676.47;1711849;82;21097;-38
2022/12/20 02:02:42;;;;;;;36.08;16.80;;;;;;;1.04;85.45;99668.67;1711867;84;21540;-36
2022/12/20 02:05:08;;;;;;;34.33;17.37;;;;;;;1.08;85.10;99672.94;1712059;83;20995;-39
2022/12/20 02:07:35;;;;;;;38.02;16.82;;;;;;;1.05;84.64;99654.39;1711930;83;21544;-42
2022/12/20 02:10:03;;;;;;;36.60;17.62;;;;;;;1.03;85.24;99663.91;1712003;84;20964;-42
2022/12/20 02:12:35;;;;;;;31.77;17.23;;;;;;;1.06;85.10;99656.12;1711841;84;21618;-39
2022/12/20 02:15:25;;;;;;;37.23;18.55;;;;;;;1.14;84.61;99655.58;1711197;82;21490;-36
2022/12/20 02:18:02;;;;;;;35.55;17.50;;;;;;;1.05;84.83;99659.56;1711538;84;21012;-39
2022/12/20 02:20:54;;;;;;;35.25;17.20;;;;;;;1.13;84.02;99651.73;1711643;84;20999;-36
2022/12/20 02:23:51;;;;;;;34.18;17.12;;;;;;;1.04;84.84;99661.75;1711850;84;21532;-36
2022/12/20 02:26:48;;;;;;;30.37;15.70;;;;;;;0.99;85.17;99652.32;1711958;84;20999;-40
2022/12/20 02:29:39;;;;;;;35.38;17.67;;;;;;;0.92;84.79;99639.42;1711942;84;20980;-37
2022/12/20 02:32:20;;;;;;;29.82;15.65;;;;;;;0.95;84.91;99639.84;1711914;84;21544;-40
2022/12/20 02:34:46;;;;;;;32.67;16.52;;;;;;;0.98;84.71;99646.27;1711918;84;20999;-36
2022/12/20 02:37:11;;;;;;;32.05;16.05;;;;;;;0.98;84.93;99636.34;1711885;83;20992;-37
2022/12/20 02:39:40;;;;;;;33.18;16.37;;;;;;;1.01;84.69;99628.55;1711765;84;21038;-44
2022/12/20 02:42:16;;;;;;;34.73;16.80;;;;;;;1.01;84.95;99638.47;1753242;79;21130;-36
2022/12/20 02:47:48;;;;;;;36.83;16.80;;;;;;;1.07;85.30;99674.65;1782223;80;21502;-38
2022/12/20 02:50:17;;;;;;;;;;;;;;;1.16;84.99;99693.12;1784797;80;20975;-37
2022/12/20 02:52:43;;;;;;;30.15;15.58;;;;;;;1.22;84.96;99694.38;1782009;80;20096;-38
2022/12/20 02:55:10;;;;;;;28.45;16.70;;;;;;;1.25;85.12;99678.78;1781955;80;20999;-39
2022/12/20 02:58:06;;;;;;;34.50;16.75;;;;;;;1.24;85.08;99667.16;1782322;80;21444;-37
2022/12/20 03:00:37;;;;;;;30.87;17.17;;;;;;;1.17;85.32;99657.74;1782224;80;20995;-36
2022/12/20 03:03:23;;;;;;;34.63;17.30;;;;;;;1.25;85.63;99652.02;1781830;80;21038;-39
2022/12/20 03:05:52;;;;;;;35.68;17.65;;;;;;;1.30;85.34;99652.38;1781984;80;21007;-37
2022/12/20 03:08:20;;;;;;;33.10;16.27;;;;;;;1.32;85.48;99648.48;1782096;80;20999;-39
2022/12/20 03:10:47;;;;;;;31.68;16.30;;;;;;;1.30;85.08;99630.80;1782053;80;21030;-39
2022/12/20 03:13:13;;;;;;;34.13;17.37;;;;;;;1.38;85.09;99633.30;1782091;80;21035;-39
2022/12/20 03:15:39;;;;;;;32.70;16.80;;;;;;;1.37;85.21;99624.67;1781875;80;20995;-39
2022/12/20 03:18:05;;;;;;;33.25;17.32;;;;;;;1.42;85.21;99626.77;1782060;80;20991;-36
2022/12/20 03:20:31;;;;;;;34.75;17.75;;;;;;;1.40;85.21;99623.35;1781957;80;21480;-39
2022/12/20 03:22:57;;;;;;;33.08;16.97;;;;;;;1.34;85.44;99616.93;1782055;80;20983;-40
2022/12/20 03:25:23;;;;;;;33.65;17.25;;;;;;;1.31;85.33;99601.41;1781989;80;21445;-37
2022/12/20 03:27:49;;;;;;;36.10;17.35;;;;;;;1.29;85.84;99590.22;1781954;80;21003;-37
2022/12/20 03:30:14;;;;;;;31.60;17.15;;;;;;;1.33;86.02;99594.50;1781900;80;21030;-38
2022/12/20 03:32:40;;;;;;;33.00;15.88;;;;;;;1.34;86.12;99600.09;1781989;80;21003;-39
2022/12/20 03:35:07;;;;;;;35.78;16.35;;;;;;;1.34;85.92;99597.50;1781937;80;20995;-41
2022/12/20 03:37:33;;;;;;;36.63;16.77;;;;;;;1.39;86.08;99599.59;1782076;80;20975;-40
2022/12/20 03:39:58;;;;;;;31.60;16.97;;;;;;;1.43;85.74;99624.59;1781985;80;21003;-35
2022/12/20 03:42:24;;;;;;;31.00;16.23;;;;;;;1.49;85.49;99615.45;1781748;80;20988;-36
2022/12/20 03:44:50;;;;;;;27.02;15.70;;;;;;;1.54;85.64;99624.00;1781633;80;21404;-35
2022/12/20 03:47:16;;;;;;;35.50;16.37;;;;;;;1.54;85.64;99624.00;1781686;80;21003;-37
2022/12/20 03:49:41;;;;;;;35.15;16.50;;;;;;;1.54;85.47;99617.52;1781682;80;21030;-37
2022/12/20 03:52:11;;;;;;;31.97;16.57;;;;;;;1.57;85.35;99610.16;1781709;80;20993;-37
2022/12/20 03:54:37;;;;;;;31.05;15.63;;;;;;;1.56;85.04;99611.02;1781680;80;21033;-39
2022/12/20 03:57:03;;;;;;;33.42;16.45;;;;;;;1.52;85.05;99597.25;1781672;80;20998;-39
2022/12/20 03:59:29;;;;;;;33.10;16.62;;;;;;;1.53;84.85;99608.50;1781658;80;20979;-38
2022/12/20 04:01:55;;;;;;;38.23;17.62;;;;;;;1.53;84.72;99609.34;1781845;80;20991;-38
2022/12/20 04:04:20;;;;;;;31.55;15.48;;;;;;;1.50;84.69;99602.89;1781709;80;21003;-39
2022/12/20 04:06:47;;;;;;;34.98;16.75;;;;;;;1.38;85.10;99596.57;1781695;80;21039;-38
2022/12/20 04:09:13;;;;;;;31.10;15.93;;;;;;;1.44;85.22;99596.51;1781834;80;20998;-37
2022/12/20 04:11:39;;;;;;;31.48;17.73;;;;;;;1.35;84.93;99597.92;1781914;80;21003;-40
2022/12/20 04:14:06;;;;;;;36.05;16.60;;;;;;;1.45;84.79;99589.14;1781761;80;21528;-39
2022/12/20 04:16:32;;;;;;;35.38;17.75;;;;;;;1.44;84.56;99595.66;1781774;80;21472;-38
2022/12/20 04:18:57;;;;;;;34.78;17.05;;;;;;;1.45;84.34;99599.95;1781791;80;20991;-39
2022/12/20 04:21:30;;;;;;;31.68;16.75;;;;;;;1.45;84.36;99596.91;1781875;80;20987;-39
2022/12/20 04:23:57;;;;;;;37.03;18.52;;;;;;;1.46;84.42;99599.94;1781763;80;21651;-37
2022/12/20 04:26:24;;;;;;;32.28;15.90;;;;;;;1.51;84.18;99600.73;1781908;80;20995;-36
2022/12/20 04:28:50;;;;;;;33.40;17.55;;;;;;;1.48;83.89;99588.26;1781952;80;21054;-36
2022/12/20 04:31:15;;;;;;;34.73;17.10;;;;;;;1.41;83.65;99592.66;1781798;80;20995;-37
2022/12/20 04:33:42;;;;;;;37.93;17.15;;;;;;;1.42;83.71;99593.09;1781868;80;20991;-37
2022/12/20 04:36:08;;;;;;;33.67;17.15;;;;;;;1.45;83.54;99599.50;1781832;80;20984;-37
2022/12/20 04:38:34;;;;;;;34.13;17.00;;;;;;;1.49;83.44;99595.13;1781862;80;21043;-38
2022/12/20 04:41:00;;;;;;;32.53;16.77;;;;;;;1.52;83.31;99597.70;1781798;80;21120;-38
2022/12/20 04:43:26;;;;;;;33.83;15.93;;;;;;;1.53;83.10;99600.27;1772830;80;21067;-39
2022/12/20 04:45:57;;;;;;;35.52;17.85;;;;;;;1.50;82.90;99602.89;1770888;80;21008;-38
2022/12/20 04:48:26;;;;;;;34.90;17.02;;;;;;;1.57;82.70;99606.72;1770906;80;21038;-37
2022/12/20 04:50:53;;;;;;;35.23;17.20;;;;;;;1.57;82.53;99604.98;1770885;81;21002;-40
2022/12/20 04:54:02;;;;;;;36.25;16.93;;;;;;;1.52;82.11;99604.17;1771000;81;21042;-37
2022/12/20 04:55:50;;;;;;;32.25;16.27;;;;;;;1.49;82.11;99616.75;1756369;81;20992;-36
2022/12/20 04:58:16;;;;;;;33.38;16.45;;;;;;;1.48;81.71;99609.84;1770872;81;21008;-38
2022/12/20 05:00:42;;;;;;;32.73;16.25;;;;;;;1.41;81.75;99609.50;1770937;81;21532;-38
2022/12/20 05:03:08;;;;;;;33.95;17.02;;;;;;;1.41;81.80;99617.72;1770924;81;21485;-40
2022/12/20 05:05:33;;;;;;;35.20;17.75;;;;;;;1.43;81.97;99619.40;1771008;81;21874;-39
2022/12/20 05:07:59;;;;;;;34.58;17.23;;;;;;;1.45;81.64;99625.42;1770840;80;21512;-38
2022/12/20 05:10:25;;;;;;;35.05;17.50;;;;;;;1.42;81.63;99619.00;1770964;81;21493;-37
2022/12/20 05:12:51;;;;;;;35.70;17.02;;;;;;;1.33;81.39;99622.56;1770949;81;21477;-38
2022/12/20 05:15:17;;;;;;;38.78;17.73;;;;;;;1.40;81.42;99610.39;1770849;81;21027;-39
2022/12/20 05:17:42;;;;;;;33.08;17.52;;;;;;;1.39;81.02;99613.00;1770880;81;20976;-38
2022/12/20 05:20:10;;;;;;;33.33;17.42;;;;;;;1.34;80.71;99610.45;1770899;81;21407;-37
2022/12/20 05:28:03;;;;;;;35.73;16.65;;;;;;;1.34;80.80;99622.96;1770882;81;21011;-39
2022/12/20 05:30:29;;;;;;;34.18;17.20;;;;;;;1.38;80.80;99622.93;1770828;81;21003;-36
2022/12/20 05:32:55;;;;;;;33.38;16.82;;;;;;;1.29;80.37;99621.30;1770944;80;21541;-38
2022/12/20 05:35:21;;;;;;;36.45;17.17;;;;;;;1.34;80.55;99616.93;1770902;80;21027;-39
2022/12/20 05:37:47;;;;;;;35.52;17.15;;;;;;;1.36;80.38;99616.47;1770953;81;21445;-39
2022/12/20 05:40:13;;;;;;;35.35;17.77;;;;;;;1.39;80.45;99608.66;1770892;81;21473;-39
2022/12/20 05:42:39;;;;;;;42.73;18.35;;;;;;;1.39;80.35;99610.41;1770793;80;21674;-37
2022/12/20 05:45:05;;;;;;;36.93;20.05;;;;;;;1.41;79.92;99593.95;1770879;81;21038;-36
2022/12/20 05:47:32;;;;;;;41.42;20.95;;;;;;;1.37;79.58;99595.33;1771142;81;21055;-38
2022/12/20 05:50:03;;;;;;;40.03;19.77;;;;;;;1.42;79.94;99602.57;1770941;81;21008;-36
2022/12/20 05:52:29;;;;;;;41.50;21.15;;;;;;;1.43;79.83;99596.52;1770815;81;21172;-38
2022/12/20 05:54:55;;;;;;;40.25;20.70;;;;;;;1.37;79.68;99596.17;1770814;81;21454;-38
2022/12/20 05:57:20;;;;;;;41.40;20.20;;;;;;;1.36;79.35;99577.60;1770863;81;21000;-37
2022/12/20 05:59:46;;;;;;;39.78;18.85;;;;;;;1.43;79.47;99585.71;1770826;81;20991;-38
2022/12/20 06:02:12;;;;;;;38.90;19.27;;;;;;;1.43;79.47;99585.71;1770780;81;20992;-41
2022/12/20 06:04:39;;;;;;;39.45;18.35;;;;;;;1.43;79.41;99599.97;1770827;81;21031;-37
2022/12/20 06:07:05;;;;;;;30.17;16.10;;;;;;;1.43;79.19;99598.67;1747710;81;21035;-39
2022/12/20 06:09:32;;;;;;;37.67;17.98;;;;;;;1.37;79.19;99605.69;1769656;80;21043;-39
2022/12/20 06:11:58;;;;;;;38.50;18.87;;;;;;;1.39;79.20;99598.30;1771060;81;21051;-38
2022/12/20 06:14:24;;;;;;;42.75;20.05;;;;;;;1.33;78.86;99590.62;1770810;81;21525;-38
2022/12/20 06:16:50;;;;;;;39.20;17.98;;;;;;;1.29;79.13;99597.58;1770860;81;20996;-38
2022/12/20 06:19:16;;;;;;;38.98;18.48;;;;;;;1.26;79.00;99588.98;1770881;81;21038;-36
2022/12/20 06:21:42;;;;;;;35.98;17.60;;;;;;;1.30;79.15;99593.23;1770818;81;20998;-37
2022/12/20 06:24:08;;;;;;;33.53;17.82;;;;;;;1.26;78.99;99594.16;1770813;81;20960;-36
2022/12/20 06:26:37;;;;;;;36.33;18.00;;;;;;;1.24;78.83;99595.47;1770846;81;21039;-37
2022/12/20 06:29:12;;;;;;;33.40;17.12;;;;;;;1.14;78.95;99593.41;1770857;81;21007;-36
2022/12/20 06:31:33;;;;;;;34.48;17.07;;;;;;;1.15;78.98;99600.32;1769171;81;20988;-38
2022/12/20 06:33:59;;;;;;;38.48;18.55;;;;;;;1.18;78.92;99598.56;1771058;81;21043;-38
2022/12/20 06:36:24;;;;;;;41.23;18.80;;;;;;;1.14;78.35;99599.03;1770891;80;21028;-37
2022/12/20 06:38:50;;;;;;;35.95;17.17;;;;;;;1.14;78.35;99599.03;1770825;81;21589;-38
2022/12/20 06:41:16;;;;;;;37.05;18.17;;;;;;;1.18;78.39;99600.70;1770861;81;21527;-37
2022/12/20 06:43:42;;;;;;;38.38;18.07;;;;;;;1.19;78.16;99597.25;1770702;80;21059;-37
2022/12/20 06:46:08;;;;;;;35.38;17.60;;;;;;;1.20;78.37;99594.22;1770782;81;21003;-39
2022/12/20 06:48:33;;;;;;;34.83;17.73;;;;;;;1.19;78.27;99599.00;1770831;81;20968;-35
2022/12/20 06:50:59;;;;;;;38.88;18.10;;;;;;;1.17;78.21;99601.60;1770770;81;20964;-38
2022/12/20 06:53:25;;;;;;;35.33;17.42;;;;;;;1.14;77.99;99597.74;1770553;81;20988;-39
2022/12/20 06:55:51;;;;;;;39.30;17.77;;;;;;;1.11;77.89;99603.83;1770741;81;21022;-36
2022/12/20 06:58:18;;;;;;;35.63;17.65;;;;;;;1.13;77.97;99608.55;1770786;81;20999;-35
2022/12/20 07:00:44;;;;;;;40.63;19.30;;;;;;;1.13;77.67;99604.66;1771010;80;21008;-36
2022/12/20 07:03:09;;;;;;;39.18;18.92;;;;;;;1.15;77.98;99603.36;1770858;81;21006;-36
2022/12/20 07:05:35;;;;;;;40.90;19.55;;;;;;;1.13;77.93;99611.14;1770877;81;21536;-36
2022/12/20 07:08:03;;;;;;;34.80;18.65;;;;;;;1.11;77.62;99602.53;1770904;81;21433;-38
2022/12/20 07:10:29;;;;;;;;;;;;;;;1.08;77.92;99605.60;1773427;81;21019;-36
2022/12/20 07:12:55;;;;;;;41.60;19.42;;;;;;;1.09;77.75;99606.00;1771047;81;20100;-35
2022/12/20 07:15:21;;;;;;;36.58;20.48;;;;;;;1.09;77.91;99606.88;1770729;80;21167;-37
2022/12/20 07:17:47;;;;;;;40.90;20.35;;;;;;;1.07;77.77;99611.64;1747030;81;21368;-37
2022/12/20 07:20:12;;;;;;;38.85;19.70;;;;;;;1.08;77.80;99605.60;1770763;81;20960;-37
2022/12/20 07:22:38;;;;;;;41.77;19.85;;;;;;;1.03;77.73;99611.27;1770785;81;21047;-38
2022/12/20 07:25:04;;;;;;;43.30;19.95;;;;;;;1.11;77.76;99607.72;1770795;81;20987;-36
2022/12/20 07:27:30;;;;;;;38.20;20.62;;;;;;;1.17;77.86;99618.89;1770765;81;21473;-38
2022/12/20 07:29:56;;;;;;;47.85;22.00;;;;;;;1.25;78.05;99618.34;1770827;81;20972;-35
2022/12/20 07:32:22;;;;;;;49.45;21.25;;;;;;;1.28;77.51;99608.80;1770860;81;20999;-39
2022/12/20 07:34:47;;;;;;;39.08;19.57;;;;;;;1.31;77.38;99606.59;1770822;81;20987;-38
2022/12/20 07:37:13;;;;;;;43.17;19.90;;;;;;;1.28;76.94;99617.86;1770766;81;21090;-38
2022/12/20 07:39:41;;;;;;;41.60;20.15;;;;;;;1.36;77.46;99612.58;1770766;81;20996;-37
2022/12/20 07:42:08;;;;;;;;;;;;;;;1.39;77.12;99607.38;1773431;81;21030;-39
2022/12/20 07:44:37;;;;;;;41.08;19.25;;;;;;;1.45;77.15;99613.75;1770857;81;20121;-36
2022/12/20 07:47:02;;;;;;;43.63;21.62;;;;;;;1.50;76.99;99617.15;1770744;81;21591;-37
2022/12/20 07:49:28;;;;;;;42.70;19.27;;;;;;;1.52;76.72;99615.39;1770723;81;21003;-38
2022/12/20 07:51:57;;;;;;;40.73;19.50;;;;;;;1.54;76.75;99617.97;1770729;81;20988;-37
2022/12/20 07:54:28;;;;;;;40.55;20.43;;;;;;;1.52;76.53;99620.58;1770759;81;21454;-36
2022/12/20 07:56:59;;;;;;;36.00;17.40;;;;;;;1.54;76.43;99617.52;1770171;81;21468;-40
2022/12/20 07:59:35;;;;;;;41.40;19.45;;;;;;;1.41;76.20;99611.23;1771155;81;21034;-35
2022/12/20 08:02:01;;;;;;;42.15;19.85;;;;;;;1.53;76.26;99601.56;1770930;81;21035;-36
2022/12/20 08:04:29;;;;;;;42.73;19.90;;;;;;;1.62;76.33;99602.30;1770916;81;21027;-37
2022/12/20 08:06:58;;;;;;;34.23;18.60;;;;;;;1.61;76.12;99596.27;1770890;81;21464;-36
2022/12/20 08:09:29;;;;;;;43.83;20.72;;;;;;;1.60;76.10;99601.47;1770860;81;20991;-39
2022/12/20 08:11:57;;;;;;;42.67;20.12;;;;;;;1.63;76.24;99604.03;1770968;81;20956;-36
2022/12/20 08:14:23;;;;;;;42.08;20.70;;;;;;;1.63;75.77;99615.25;1770946;81;20991;-45
2022/12/20 08:16:48;;;;;;;42.83;20.52;;;;;;;1.64;76.07;99609.20;1770986;81;21421;-39
2022/12/20 08:19:15;;;;;;;41.73;20.60;;;;;;;1.66;76.00;99604.00;1771179;81;20991;-37
2022/12/20 08:21:41;;;;;;;40.80;20.27;;;;;;;1.73;76.26;99593.52;1770957;81;20991;-38
2022/12/20 08:24:07;;;;;;;43.63;19.77;;;;;;;1.74;75.85;99596.95;1771140;81;20979;-37
2022/12/20 08:26:39;;;;;;;47.38;21.77;;;;;;;1.83;76.15;99593.38;1771106;81;20998;-39
2022/12/20 08:29:05;;;;;;;40.08;21.33;;;;;;;1.83;75.62;99596.81;1769903;81;20995;-36
2022/12/20 08:31:31;;;;;;;44.70;21.23;;;;;;;1.90;75.81;99593.70;1770893;80;21046;-41
2022/12/20 08:33:57;;;;;;;52.95;22.80;;;;;;;1.97;75.73;99590.58;1770894;81;21001;-37
2022/12/20 08:36:22;;;;;;;41.25;19.42;;;;;;;2.04;75.69;99596.94;1770793;81;20968;-38
2022/12/20 08:38:48;;;;;;;40.28;19.62;;;;;;;2.03;74.98;99593.07;1770862;81;20988;-36
2022/12/20 08:41:15;;;;;;;47.40;21.55;;;;;;;2.04;75.21;99592.20;1770871;81;21030;-37
2022/12/20 08:43:42;;;;;;;41.85;20.95;;;;;;;2.07;75.14;99596.02;1772562;80;21500;-39
2022/12/20 08:46:09;;;;;;;51.28;23.35;;;;;;;2.11;74.75;99593.38;1774706;81;21078;-38
2022/12/20 08:48:35;;;;;;;41.75;19.90;;;;;;;2.06;74.49;99590.44;1774659;80;20971;-35
2022/12/20 08:51:05;;;;;;;49.15;21.87;;;;;;;2.10;74.35;99593.39;1774443;81;20996;-37
2022/12/20 08:53:33;;;;;;;40.40;20.48;;;;;;;2.11;74.98;99595.09;1774491;81;21441;-40
2022/12/20 08:56:12;;;;;;;42.62;20.85;;;;;;;2.08;74.48;99594.70;1774397;80;21047;-39
2022/12/20 08:58:39;;;;;;;41.75;20.48;;;;;;;2.16;74.92;99585.50;1774392;81;21011;-39
2022/12/20 09:01:08;;;;;;;42.08;20.45;;;;;;;2.15;74.75;99590.29;1774508;81;21485;-36
2022/12/20 09:03:35;;;;;;;50.95;22.00;;;;;;;2.22;74.63;99580.64;1774341;81;21000;-40
2022/12/20 09:06:07;;;;;;;44.70;22.13;;;;;;;2.27;74.66;99573.23;1774511;81;21480;-40
2022/12/20 09:08:35;;;;;;;47.55;21.25;;;;;;;2.32;74.51;99568.39;1774475;81;20988;-37
2022/12/20 09:11:07;;;;;;;44.00;22.73;;;;;;;2.35;74.11;99570.91;1774519;81;21030;-37
2022/12/20 09:13:33;;;;;;;46.28;20.43;;;;;;;2.41;74.23;99574.27;1774392;80;20995;-40
2022/12/20 09:16:01;;;;;;;50.90;23.45;;;;;;;2.42;73.95;99569.92;1774300;81;20963;-40
2022/12/20 09:18:27;;;;;;;49.45;22.82;;;;;;;2.34;73.80;99570.52;1774600;81;20984;-36
2022/12/20 09:20:53;;;;;;;44.53;22.58;;;;;;;2.44;74.13;99577.27;1774409;81;20998;-41
2022/12/20 09:23:19;;;;;;;48.35;23.90;;;;;;;2.41;73.85;99570.83;1774484;81;21034;-37
2022/12/20 09:25:44;;;;;;;46.70;21.73;;;;;;;2.48;74.29;99570.68;1774411;81;20996;-37
2022/12/20 09:28:10;;;;;;;43.45;21.12;;;;;;;2.51;73.81;99573.69;1774385;81;21019;-38
2022/12/20 09:30:36;;;;;;;46.55;22.73;;;;;;;2.55;74.03;99573.16;1774319;81;20995;-39
2022/12/20 09:33:02;;;;;;;43.70;21.10;;;;;;;2.51;74.38;99581.47;1774362;81;20988;-36
2022/12/20 09:35:28;;;;;;;47.35;22.60;;;;;;;2.56;74.74;99582.22;1774319;81;21043;-39
2022/12/20 09:37:54;;;;;;;42.73;21.68;;;;;;;2.60;74.04;99577.41;1774401;81;21489;-39
2022/12/20 09:40:25;;;;;;;45.35;21.50;;;;;;;2.65;73.62;99578.61;1774538;81;20995;-40
2022/12/20 09:42:52;;;;;;;46.28;21.95;;;;;;;2.63;73.52;99578.62;1773213;80;21549;-37
2022/12/20 09:45:23;;;;;;;46.00;22.77;;;;;;;2.64;73.42;99573.86;1779708;80;21513;-39
2022/12/20 09:47:51;;;;;;;48.80;23.52;;;;;;;2.71;73.42;99577.63;1778905;80;21031;-39
2022/12/20 09:50:19;;;;;;;51.02;23.00;;;;;;;2.78;73.36;99582.67;1779696;80;21318;-41
2022/12/20 09:53:02;;;;;;;53.63;24.18;;;;;;;2.87;73.25;99581.23;1774493;80;21495;-37
2022/12/20 09:55:45;;;;;;;47.15;23.62;;;;;;;2.93;73.29;99577.66;1748917;82;20991;-38
2022/12/20 09:58:37;;;;;;;51.58;22.73;;;;;;;3.01;72.78;99582.69;1748679;82;21453;-36
2022/12/20 10:01:25;;;;;;;47.03;22.77;;;;;;;3.03;72.89;99589.56;1748127;81;21066;-37
2022/12/20 10:03:52;;;;;;;49.95;23.20;;;;;;;3.06;72.60;99593.86;1778456;80;21535;-36
2022/12/20 10:06:28;;;;;;;45.38;22.35;;;;;;;3.19;72.49;99603.11;1779623;80;21489;-39
2022/12/20 10:09:02;;;;;;;46.28;22.05;;;;;;;3.26;72.02;99603.85;1779322;80;21487;-40
2022/12/20 10:11:51;;;;;;;44.10;22.02;;;;;;;3.31;71.57;99606.34;1779547;80;21483;-39
2022/12/20 10:14:43;;;;;;;43.17;21.40;;;;;;;3.33;72.01;99595.04;1779433;80;21500;-37
2022/12/20 10:17:31;;;;;;;46.68;23.60;;;;;;;3.19;71.85;99592.71;1779342;80;20959;-36
2022/12/20 10:20:28;;;;;;;42.53;21.27;;;;;;;3.20;71.93;99588.36;1779110;80;21067;-37
2022/12/20 10:23:02;;;;;;;41.60;22.45;;;;;;;3.05;71.53;99584.33;1779096;80;21030;-36
2022/12/20 10:25:32;;;;;;;45.33;22.70;;;;;;;3.10;72.03;99581.66;1779760;80;20988;-38
2022/12/20 10:28:02;;;;;;;44.65;21.80;;;;;;;3.13;71.91;99585.05;1779319;80;21035;-38
2022/12/20 10:30:29;;;;;;;49.67;23.75;;;;;;;3.19;72.39;99573.67;1779630;80;20992;-36
2022/12/20 10:32:57;;;;;;;50.03;23.57;;;;;;;3.17;72.20;99567.66;1749014;80;20992;-36
2022/12/20 10:35:40;;;;;;;51.73;24.77;;;;;;;3.27;72.16;99560.06;1779552;80;20983;-36
2022/12/20 10:38:12;;;;;;;43.98;22.70;;;;;;;3.39;72.46;99550.70;1779377;80;21453;-36
2022/12/20 10:41:00;;;;;;;43.85;22.27;;;;;;;3.43;72.25;99545.84;1779734;80;21481;-37
2022/12/20 10:43:27;;;;;;;42.55;20.75;;;;;;;3.46;71.91;99541.88;1779480;80;21492;-38
2022/12/20 10:46:07;;;;;;;41.02;22.30;;;;;;;3.42;71.27;99535.05;1779737;80;21004;-40
2022/12/20 10:48:40;;;;;;;44.83;22.62;;;;;;;3.45;72.07;99530.21;1746148;81;20952;-36
2022/12/20 10:51:14;;;;;;;45.73;21.85;;;;;;;3.35;71.48;99545.17;1778829;80;20991;-35
2022/12/20 10:54:03;;;;;;;46.42;22.90;;;;;;;3.38;71.93;99534.68;1778878;80;21006;-37
2022/12/20 10:56:35;;;;;;;45.10;21.80;;;;;;;3.37;71.92;99534.29;1766149;80;20955;-37
2022/12/20 10:59:21;;;;;;;41.02;21.35;;;;;;;3.38;71.90;99528.63;1771258;81;20983;-39
2022/12/20 11:01:49;;;;;;;48.23;23.35;;;;;;;3.33;71.87;99522.25;1748203;80;20944;-39
2022/12/20 11:04:34;;;;;;;47.62;22.40;;;;;;;3.34;72.13;99520.05;1747507;81;21576;-38
2022/12/20 11:07:23;;;;;;;42.65;21.65;;;;;;;3.33;72.25;99511.86;1762379;81;20971;-38
2022/12/20 11:09:56;;;;;;;43.13;21.75;;;;;;;3.25;72.21;99503.36;1764550;80;21588;-38
2022/12/20 11:12:22;;;;;;;41.88;21.45;;;;;;;3.25;72.22;99500.76;1755847;82;21026;-40
2022/12/20 11:14:48;;;;;;;44.03;22.40;;;;;;;3.21;72.24;99494.77;1758080;80;20959;-43
2022/12/20 11:17:34;;;;;;;44.03;21.10;;;;;;;3.21;72.30;99486.98;1759584;81;21019;-40
2022/12/20 11:20:17;;;;;;;46.68;21.57;;;;;;;3.14;71.89;99483.25;1778759;80;20965;-37
2022/12/20 11:23:11;;;;;;;45.23;21.80;;;;;;;3.20;72.45;99472.71;1791184;80;20993;-36
2022/12/20 11:26:03;;;;;;;47.03;22.67;;;;;;;3.20;72.76;99470.98;1753564;80;21476;-37
2022/12/20 11:28:35;;;;;;;44.95;22.60;;;;;;;3.23;72.91;99460.50;1746715;82;21027;-38
2022/12/20 11:31:30;;;;;;;43.20;21.73;;;;;;;3.26;73.01;99450.50;1758831;80;20967;-39
2022/12/20 11:34:23;;;;;;;49.13;22.85;;;;;;;3.31;73.03;99460.78;1762598;80;20959;-39
2022/12/20 11:37:17;;;;;;;47.75;23.32;;;;;;;3.28;72.67;99465.61;1759748;81;21489;-39
2022/12/20 11:40:07;;;;;;;44.63;22.40;;;;;;;3.36;72.75;99462.83;1770770;80;20964;-40
2022/12/20 11:43:07;;;;;;;49.13;22.73;;;;;;;3.44;72.67;99457.87;1775194;80;21530;-39
2022/12/20 11:46:12;;;;;;;39.88;21.17;;;;;;;3.50;72.44;99467.72;1779294;80;21469;-36
2022/12/20 11:49:01;;;;;;;41.48;21.95;;;;;;;3.58;71.73;99474.42;1782983;80;21465;-37